createdAt,value
2022-12-31T00:02:18.592Z,0.29
2022-12-31T00:05:25.946Z,0.39
2022-12-31T00:08:34.692Z,0.55
2022-12-31T00:11:42.456Z,0.64
2022-12-31T00:14:48.668Z,0.76
2022-12-31T00:17:55.732Z,0.84
2022-12-31T00:21:02.289Z,0.85
2022-12-31T00:24:15.147Z,0.96
2022-12-31T00:27:22.593Z,0.92
2022-12-31T00:30:29.615Z,0.91
2022-12-31T00:33:35.717Z,0.89
2022-12-31T00:36:46.221Z,0.89
2022-12-31T00:39:55.210Z,1.01
2022-12-31T00:43:02.070Z,1.05
2022-12-31T00:46:10.293Z,1.09
2022-12-31T00:49:17.274Z,1.06
2022-12-31T00:52:23.532Z,0.91
2022-12-31T00:55:34.539Z,0.98
2022-12-31T00:58:41.099Z,1.18
2022-12-31T01:01:48.099Z,1.32
2022-12-31T01:04:54.659Z,1.53
2022-12-31T01:08:01.804Z,1.65
2022-12-31T01:11:23.183Z,1.79
2022-12-31T01:14:32.863Z,1.90
2022-12-31T01:17:38.895Z,1.92
2022-12-31T01:20:47.639Z,1.99
2022-12-31T01:23:54.181Z,2.06
2022-12-31T01:27:03.747Z,2.17
2022-12-31T01:30:12.897Z,2.13
2022-12-31T01:33:19.814Z,2.36
2022-12-31T01:36:29.294Z,2.47
2022-12-31T01:39:36.180Z,2.53
2022-12-31T01:42:44.849Z,2.65
2022-12-31T01:45:57.388Z,2.63
2022-12-31T01:49:13.845Z,2.72
2022-12-31T01:52:30.219Z,2.71
2022-12-31T01:55:45.431Z,2.65
2022-12-31T01:58:59.807Z,2.66
2022-12-31T02:02:06.904Z,2.69
2022-12-31T02:05:26.221Z,2.69
2022-12-31T02:08:35.760Z,2.70
2022-12-31T02:11:47.305Z,2.77
2022-12-31T02:14:59.108Z,2.96
2022-12-31T02:18:19.433Z,3.11
2022-12-31T02:21:53.836Z,3.08
2022-12-31T02:25:52.162Z,3.02
2022-12-31T02:29:38.418Z,2.98
2022-12-31T02:33:08.897Z,2.91
2022-12-31T02:36:23.710Z,2.88
2022-12-31T02:39:33.204Z,2.86
2022-12-31T02:42:40.031Z,2.91
2022-12-31T02:45:53.722Z,2.90
2022-12-31T02:49:24.259Z,2.89
2022-12-31T02:52:51.043Z,2.76
2022-12-31T02:56:12.102Z,2.68
2022-12-31T02:59:41.872Z,2.60
2022-12-31T03:02:53.273Z,2.63
2022-12-31T03:06:06.778Z,2.73
2022-12-31T03:09:16.610Z,2.80
2022-12-31T03:12:41.193Z,2.80
2022-12-31T03:15:48.249Z,2.85
2022-12-31T03:19:06.570Z,3.00
2022-12-31T03:22:31.981Z,3.18
2022-12-31T03:25:38.686Z,3.28
2022-12-31T03:28:48.157Z,3.26
2022-12-31T03:31:54.482Z,3.35
2022-12-31T03:35:01.581Z,3.47
2022-12-31T03:38:11.692Z,3.46
2022-12-31T03:41:18.621Z,3.50
2022-12-31T03:44:24.998Z,3.41
2022-12-31T03:47:32.435Z,3.45
2022-12-31T03:50:39.170Z,3.43
2022-12-31T03:53:48.737Z,3.51
2022-12-31T03:56:59.887Z,3.45
2022-12-31T04:00:10.983Z,3.30
2022-12-31T04:03:17.139Z,3.19
2022-12-31T04:06:24.160Z,3.18
2022-12-31T04:09:32.838Z,3.13
2022-12-31T04:12:40.251Z,3.02
2022-12-31T04:15:46.403Z,2.99
2022-12-31T04:18:53.491Z,2.96
2022-12-31T04:21:59.578Z,2.97
2022-12-31T04:25:13.177Z,3.08
2022-12-31T04:28:19.347Z,3.11
2022-12-31T04:31:26.382Z,3.10
2022-12-31T04:34:32.968Z,3.09
2022-12-31T04:37:40.335Z,3.13
2022-12-31T04:41:01.583Z,3.13
2022-12-31T04:44:08.629Z,3.12
2022-12-31T04:47:18.772Z,3.20
2022-12-31T04:50:30.281Z,3.26
2022-12-31T04:53:36.518Z,3.30
2022-12-31T04:56:46.143Z,3.28
2022-12-31T04:59:52.237Z,3.42
2022-12-31T05:02:59.195Z,3.52
2022-12-31T05:06:08.510Z,3.62
2022-12-31T05:09:15.456Z,3.65
2022-12-31T05:12:24.279Z,3.70
2022-12-31T05:15:31.240Z,3.76
2022-12-31T05:18:37.822Z,3.78
2022-12-31T05:22:04.787Z,3.80
2022-12-31T05:25:12.462Z,3.74
2022-12-31T05:28:22.640Z,3.81
2022-12-31T05:31:28.946Z,3.90
2022-12-31T05:34:35.882Z,3.94
2022-12-31T05:37:42.385Z,3.98
2022-12-31T05:40:49.404Z,4.03
2022-12-31T05:43:58.120Z,4.06
2022-12-31T05:47:05.111Z,4.07
2022-12-31T05:50:12.950Z,4.17
2022-12-31T05:53:19.967Z,4.26
2022-12-31T05:56:26.067Z,4.31
2022-12-31T05:59:36.093Z,4.35
2022-12-31T06:02:42.313Z,4.45
2022-12-31T06:05:49.463Z,4.49
2022-12-31T06:08:55.977Z,4.55
2022-12-31T06:12:02.982Z,4.64
2022-12-31T06:15:13.421Z,4.77
2022-12-31T06:18:20.414Z,4.89
2022-12-31T06:21:26.952Z,4.88
2022-12-31T06:24:33.854Z,4.95
2022-12-31T06:27:39.958Z,5.00
2022-12-31T06:30:49.748Z,4.97
2022-12-31T06:33:57.426Z,4.88
2022-12-31T06:37:04.314Z,4.83
2022-12-31T06:40:12.780Z,4.90
2022-12-31T06:43:19.964Z,4.88
2022-12-31T06:46:28.707Z,4.90
2022-12-31T06:49:35.623Z,4.94
2022-12-31T06:52:41.788Z,5.05
2022-12-31T06:55:52.079Z,5.15
2022-12-31T06:58:59.538Z,5.09
2022-12-31T07:02:49.999Z,5.13
2022-12-31T07:06:09.053Z,5.14
2022-12-31T07:09:29.499Z,5.23
2022-12-31T07:13:10.404Z,4.97
2022-12-31T07:16:43.022Z,5.06
2022-12-31T07:20:05.957Z,5.23
2022-12-31T07:23:14.039Z,5.19
2022-12-31T07:26:48.689Z,5.15
2022-12-31T07:30:12.679Z,5.14
2022-12-31T07:33:53.722Z,5.18
2022-12-31T07:37:16.426Z,5.17
2022-12-31T07:40:37.519Z,5.19
2022-12-31T07:44:04.155Z,5.24
2022-12-31T07:47:24.685Z,5.24
2022-12-31T07:50:33.011Z,5.35
2022-12-31T07:53:42.263Z,5.43
2022-12-31T07:56:52.528Z,5.48
2022-12-31T08:00:10.911Z,5.62
2022-12-31T08:03:50.890Z,5.79
2022-12-31T08:07:14.688Z,5.80
2022-12-31T08:10:40.590Z,5.74
2022-12-31T08:13:48.400Z,5.89
2022-12-31T08:16:57.275Z,5.70
2022-12-31T08:20:04.570Z,6.01
2022-12-31T08:23:31.607Z,6.00
2022-12-31T08:26:56.886Z,6.17
2022-12-31T08:30:12.087Z,6.52
2022-12-31T08:33:32.124Z,6.81
2022-12-31T08:36:56.506Z,6.88
2022-12-31T08:40:27.232Z,6.79
2022-12-31T08:43:57.540Z,6.74
2022-12-31T08:47:20.519Z,6.68
2022-12-31T08:50:28.744Z,6.68
2022-12-31T08:53:36.165Z,6.99
2022-12-31T08:56:56.672Z,7.30
2022-12-31T09:00:14.699Z,7.59
2022-12-31T09:03:46.206Z,7.82
2022-12-31T09:07:03.436Z,8.21
2022-12-31T09:10:25.573Z,8.02
2022-12-31T09:14:00.462Z,7.70
2022-12-31T09:17:42.210Z,7.35
2022-12-31T09:20:49.595Z,7.07
2022-12-31T09:23:57.834Z,6.90
2022-12-31T09:27:25.428Z,6.99
2022-12-31T09:30:48.663Z,7.21
2022-12-31T09:34:09.889Z,7.60
2022-12-31T09:37:25.188Z,7.54
2022-12-31T09:41:15.858Z,7.75
2022-12-31T09:45:37.195Z,7.77
2022-12-31T09:49:49.319Z,7.79
2022-12-31T09:53:48.738Z,7.77
2022-12-31T09:57:47.670Z,7.82
2022-12-31T10:01:04.447Z,7.96
2022-12-31T10:04:55.062Z,8.05
2022-12-31T10:08:25.017Z,8.07
2022-12-31T10:12:05.838Z,7.95
2022-12-31T10:15:51.754Z,8.06
2022-12-31T10:19:56.361Z,8.09
2022-12-31T10:23:35.580Z,8.25
2022-12-31T10:27:04.180Z,8.37
2022-12-31T10:30:20.977Z,8.58
2022-12-31T10:33:47.892Z,8.59
2022-12-31T10:37:13.988Z,8.82
2022-12-31T10:40:48.146Z,8.85
2022-12-31T10:44:42.432Z,9.06
2022-12-31T10:48:35.671Z,9.18
2022-12-31T10:52:30.569Z,9.60
2022-12-31T10:56:33.310Z,9.70
2022-12-31T11:00:17.204Z,9.49
2022-12-31T11:04:10.655Z,9.39
2022-12-31T11:07:58.015Z,9.47
2022-12-31T11:11:34.832Z,9.37
2022-12-31T11:15:18.800Z,9.43
2022-12-31T11:18:43.748Z,9.71
2022-12-31T11:22:25.426Z,10.08
2022-12-31T11:26:05.057Z,10.02
2022-12-31T11:29:42.393Z,10.20
2022-12-31T11:33:20.209Z,10.55
2022-12-31T11:36:47.738Z,10.49
2022-12-31T11:40:18.358Z,10.64
2022-12-31T11:43:38.560Z,10.46
2022-12-31T11:47:06.827Z,10.55
2022-12-31T11:50:39.106Z,10.67
2022-12-31T11:54:27.270Z,10.72
2022-12-31T11:57:39.339Z,10.54
2022-12-31T12:00:59.323Z,10.47
2022-12-31T12:04:07.654Z,10.34
2022-12-31T12:07:18.683Z,10.00
2022-12-31T12:10:36.201Z,9.85
2022-12-31T12:13:42.756Z,9.90
2022-12-31T12:17:04.419Z,9.70
2022-12-31T12:20:24.511Z,9.79
2022-12-31T12:23:33.080Z,9.83
2022-12-31T12:26:42.278Z,9.81
2022-12-31T12:29:49.475Z,9.73
2022-12-31T12:33:04.978Z,9.71
2022-12-31T12:36:15.658Z,9.74
2022-12-31T12:39:28.259Z,9.79
2022-12-31T12:42:36.054Z,9.84
2022-12-31T12:45:52.372Z,9.79
2022-12-31T12:49:04.433Z,9.74
2022-12-31T12:52:57.709Z,9.70
2022-12-31T12:56:27.765Z,9.70
2022-12-31T13:00:09.575Z,9.69
2022-12-31T13:08:06.219Z,9.54
2022-12-31T13:11:34.376Z,9.54
2022-12-31T13:14:54.680Z,9.63
2022-12-31T13:18:22.297Z,9.58
2022-12-31T13:21:48.380Z,9.34
2022-12-31T13:25:10.483Z,9.60
2022-12-31T13:28:22.936Z,9.60
2022-12-31T13:31:39.384Z,9.52
2022-12-31T13:34:51.139Z,9.49
2022-12-31T13:38:08.489Z,9.55
2022-12-31T13:41:27.330Z,9.42
2022-12-31T13:44:44.981Z,9.29
2022-12-31T13:48:01.685Z,9.41
2022-12-31T13:51:21.178Z,9.43
2022-12-31T13:54:44.715Z,9.42
2022-12-31T13:58:06.086Z,9.46
2022-12-31T14:01:23.429Z,9.41
2022-12-31T14:04:42.342Z,9.38
2022-12-31T14:07:57.841Z,9.42
2022-12-31T14:11:23.842Z,9.37
2022-12-31T14:14:46.184Z,9.37
2022-12-31T14:18:08.981Z,9.34
2022-12-31T14:21:26.468Z,9.24
2022-12-31T14:24:48.341Z,9.17
2022-12-31T14:27:59.669Z,9.14
2022-12-31T14:31:26.619Z,9.19
2022-12-31T14:34:49.929Z,9.11
2022-12-31T14:38:10.514Z,9.01
2022-12-31T14:41:46.492Z,9.04
2022-12-31T14:45:18.599Z,8.96
2022-12-31T14:48:50.229Z,9.00
2022-12-31T14:51:58.988Z,8.97
2022-12-31T14:55:27.512Z,8.95
2022-12-31T14:58:39.055Z,9.00
2022-12-31T15:01:48.842Z,8.92
2022-12-31T15:05:19.329Z,8.88
2022-12-31T15:08:52.759Z,8.89
2022-12-31T15:12:27.052Z,8.87
2022-12-31T15:15:56.603Z,8.88
2022-12-31T15:20:00.448Z,8.80
2022-12-31T15:23:24.290Z,8.74
2022-12-31T15:26:35.366Z,8.77
2022-12-31T15:29:49.189Z,8.79
2022-12-31T15:33:04.050Z,8.80
2022-12-31T15:36:20.980Z,8.79
2022-12-31T15:39:46.241Z,8.70
2022-12-31T15:43:03.012Z,8.74
2022-12-31T15:46:20.479Z,8.89
2022-12-31T15:49:29.495Z,8.84
2022-12-31T15:52:48.138Z,8.79
2022-12-31T15:56:02.774Z,8.81
2022-12-31T15:59:18.899Z,8.74
2022-12-31T16:02:29.735Z,8.89
2022-12-31T16:05:38.988Z,8.91
2022-12-31T16:08:52.801Z,9.01
2022-12-31T16:12:12.932Z,9.10
2022-12-31T16:15:30.794Z,9.20
2022-12-31T16:18:43.130Z,9.23
2022-12-31T16:21:50.271Z,9.23
2022-12-31T16:25:29.719Z,9.27
2022-12-31T16:28:35.735Z,9.23
2022-12-31T16:31:45.872Z,9.19
2022-12-31T16:34:55.033Z,9.18
2022-12-31T16:38:18.162Z,9.22
2022-12-31T16:41:25.369Z,9.26
2022-12-31T16:44:35.063Z,9.22
2022-12-31T16:47:41.658Z,9.22
2022-12-31T16:50:52.644Z,9.23
2022-12-31T16:54:01.122Z,9.25
2022-12-31T16:57:13.308Z,9.27
2022-12-31T17:00:27.854Z,9.17
2022-12-31T17:03:49.721Z,9.35
2022-12-31T17:06:56.279Z,9.24
2022-12-31T17:10:16.374Z,9.38
2022-12-31T17:13:37.172Z,9.37
2022-12-31T17:17:03.158Z,9.32
2022-12-31T17:20:22.545Z,9.21
2022-12-31T17:23:37.333Z,9.26
2022-12-31T17:26:43.895Z,9.23
2022-12-31T17:29:51.176Z,9.19
2022-12-31T17:33:03.776Z,9.15
2022-12-31T17:36:25.283Z,9.18
2022-12-31T17:39:47.080Z,9.23
2022-12-31T17:42:54.069Z,9.25
2022-12-31T17:46:00.247Z,9.31
2022-12-31T17:49:16.351Z,9.40
2022-12-31T17:52:22.392Z,9.52
2022-12-31T17:55:32.335Z,9.57
2022-12-31T17:58:49.259Z,9.64
2022-12-31T18:01:56.406Z,9.74
2022-12-31T18:05:05.474Z,9.78
2022-12-31T18:08:12.482Z,9.84
2022-12-31T18:11:23.296Z,9.83
2022-12-31T18:14:30.435Z,9.80
2022-12-31T18:17:37.567Z,9.80
2022-12-31T18:20:47.745Z,9.80
2022-12-31T18:26:59.818Z,9.85
2022-12-31T18:30:07.043Z,9.86
2022-12-31T18:33:22.424Z,9.84
2022-12-31T18:36:32.549Z,9.80
2022-12-31T18:39:39.540Z,9.84
2022-12-31T18:42:46.706Z,9.80
2022-12-31T18:45:55.343Z,9.85
2022-12-31T18:49:01.731Z,9.77
2022-12-31T18:52:17.329Z,9.78
2022-12-31T18:55:33.243Z,9.79
2022-12-31T18:58:40.284Z,9.77
2022-12-31T19:01:46.481Z,9.78
2022-12-31T19:04:53.509Z,9.85
2022-12-31T19:08:02.726Z,9.85
2022-12-31T19:11:09.697Z,9.83
2022-12-31T19:14:21.927Z,9.81
2022-12-31T19:17:31.131Z,9.85
2022-12-31T19:20:37.722Z,9.93
2022-12-31T19:23:47.752Z,9.97
2022-12-31T19:26:54.460Z,9.99
2022-12-31T19:30:01.658Z,10.10
2022-12-31T19:33:07.938Z,10.15
2022-12-31T19:36:20.057Z,10.18
2022-12-31T19:39:28.821Z,10.21
2022-12-31T19:42:35.777Z,10.08
2022-12-31T19:45:44.284Z,10.04
2022-12-31T19:48:51.580Z,9.98
2022-12-31T19:51:57.785Z,9.91
2022-12-31T19:55:08.189Z,9.90
2022-12-31T19:58:21.825Z,9.83
2022-12-31T20:01:29.023Z,9.74
2022-12-31T20:04:35.631Z,9.72
2022-12-31T20:07:43.138Z,9.72
2022-12-31T20:10:51.833Z,9.50
2022-12-31T20:13:58.800Z,9.45
2022-12-31T20:17:05.192Z,9.37
2022-12-31T20:20:13.574Z,9.22
2022-12-31T20:23:20.598Z,9.18
2022-12-31T20:26:30.251Z,9.12
2022-12-31T20:29:36.735Z,9.11
2022-12-31T20:32:43.665Z,9.13
2022-12-31T20:35:50.041Z,9.08
2022-12-31T20:38:57.092Z,9.07
2022-12-31T20:42:05.933Z,9.01
2022-12-31T20:45:14.650Z,9.02
2022-12-31T20:48:20.836Z,8.98
2022-12-31T20:51:30.599Z,8.94
2022-12-31T20:54:37.513Z,8.85
2022-12-31T20:57:47.523Z,8.69
2022-12-31T21:00:56.193Z,8.67
2022-12-31T21:04:06.696Z,8.53
2022-12-31T21:07:13.309Z,8.53
2022-12-31T21:10:20.459Z,8.46
2022-12-31T21:13:29.303Z,8.39
2022-12-31T21:16:36.894Z,8.33
2022-12-31T21:19:43.125Z,8.33
2022-12-31T21:22:49.982Z,8.30
2022-12-31T21:25:56.049Z,8.31
2022-12-31T21:29:05.972Z,8.29
2022-12-31T21:32:12.091Z,8.30
2022-12-31T21:38:45.975Z,8.29
2022-12-31T21:41:56.038Z,8.24
2022-12-31T21:45:05.863Z,8.25
2022-12-31T21:48:25.215Z,8.24
2022-12-31T21:51:32.639Z,8.21
2022-12-31T21:54:51.840Z,8.14
2022-12-31T21:58:28.083Z,8.17
2022-12-31T22:01:39.940Z,8.21
2022-12-31T22:05:03.074Z,8.18
2022-12-31T22:08:11.203Z,8.25
2022-12-31T22:11:20.212Z,8.22
2022-12-31T22:14:27.148Z,8.26
2022-12-31T22:17:36.668Z,8.25
2022-12-31T22:20:44.233Z,8.27
2022-12-31T22:23:56.145Z,8.26
2022-12-31T22:27:29.579Z,8.25
2022-12-31T22:30:31.233Z,8.29
2022-12-31T22:33:41.029Z,8.33
2022-12-31T22:36:47.379Z,8.33
2022-12-31T22:39:56.066Z,8.20
2022-12-31T22:43:02.955Z,8.36
2022-12-31T22:46:14.543Z,8.33
2022-12-31T22:49:23.999Z,8.41
2022-12-31T22:52:31.144Z,8.47
2022-12-31T22:55:37.242Z,8.50
2022-12-31T22:58:44.720Z,8.44
2022-12-31T23:01:50.963Z,8.55
2022-12-31T23:05:15.278Z,8.49
2022-12-31T23:08:27.768Z,8.42
2022-12-31T23:11:46.212Z,8.37
2022-12-31T23:15:04.704Z,8.36
2022-12-31T23:18:24.254Z,8.35
2022-12-31T23:21:45.500Z,8.31
2022-12-31T23:24:52.503Z,8.24
2022-12-31T23:27:58.633Z,8.35
2022-12-31T23:31:09.669Z,8.50
2022-12-31T23:34:15.791Z,8.71
2022-12-31T23:37:25.447Z,8.84
2022-12-31T23:40:34.541Z,8.87
2022-12-31T23:43:41.623Z,8.93
2022-12-31T23:46:47.835Z,8.84
2022-12-31T23:49:54.928Z,8.79
2022-12-31T23:53:03.740Z,8.76
2022-12-31T23:56:23.045Z,8.69
2022-12-31T23:59:29.950Z,8.69
